Time;durP1;ratioP1;P1;durP2;ratioP2;P2;SDS_P1;SDS_P2;PMS_P1;PMS_P2;Temp;Humidity;BMP_temperature;BMP_pressure;BME280_temperature;BME280_humidity;BME280_pressure;Samples;Min_cycle;Max_cycle;Signal;HPM_P1;HPM_P2
2023/01/26 00:00:52;;;;;;;8.65;4.18;;;;;;;-0.93;92.43;95121.03;5110338;28;20197;-78
2023/01/26 00:03:20;;;;;;;7.20;3.92;;;;;;;-0.96;92.33;95121.53;5110571;28;20197;-80
2023/01/26 00:05:46;;;;;;;4.45;2.55;;;;;;;-0.97;92.13;95126.06;5109903;28;20205;-77
2023/01/26 00:08:15;;;;;;;8.07;4.50;;;;;;;-0.89;92.14;95122.97;5109670;28;20708;-78
2023/01/26 00:10:49;;;;;;;8.90;4.70;;;;;;;-0.89;91.52;95119.50;5110005;28;20561;-78
2023/01/26 00:13:17;;;;;;;11.77;5.93;;;;;;;-0.89;91.81;95112.34;5097967;28;20186;-77
2023/01/26 00:15:43;;;;;;;10.00;5.75;;;;;;;-0.85;91.92;95121.44;5104629;28;20741;-77
2023/01/26 00:18:10;;;;;;;7.05;3.90;;;;;;;-0.86;91.53;95135.78;5109368;28;20283;-79
2023/01/26 00:20:37;;;;;;;7.32;3.95;;;;;;;-0.98;91.50;95124.44;5108412;28;20198;-79
2023/01/26 00:23:03;;;;;;;11.15;5.85;;;;;;;-0.99;91.56;95128.16;5108529;28;20194;-76
2023/01/26 00:25:32;;;;;;;10.23;4.80;;;;;;;-0.94;91.60;95130.88;5101917;28;20195;-79
2023/01/26 00:27:58;;;;;;;6.65;3.75;;;;;;;-0.96;91.26;95125.00;5109962;28;20270;-77
2023/01/26 00:30:25;;;;;;;12.50;5.38;;;;;;;-1.06;91.38;95116.84;5107016;28;20197;-79
2023/01/26 00:32:52;;;;;;;9.43;5.00;;;;;;;-1.02;91.80;95114.53;5109573;28;20221;-77
2023/01/26 00:35:19;;;;;;;10.93;6.22;;;;;;;-1.01;91.57;95101.00;5104771;28;20576;-79
2023/01/26 00:37:45;;;;;;;10.52;5.80;;;;;;;-0.95;91.20;95088.56;5107900;28;21365;-76
2023/01/26 00:40:12;;;;;;;9.25;5.53;;;;;;;-0.96;91.25;95095.75;5107576;28;20656;-78
2023/01/26 00:42:40;;;;;;;2.35;1.70;;;;;;;-1.05;91.01;95088.44;5108962;28;20201;-79
2023/01/26 00:45:08;;;;;;;10.18;4.68;;;;;;;-0.97;91.63;95093.34;5108756;28;20277;-80
2023/01/26 00:47:35;;;;;;;17.42;6.55;;;;;;;-0.99;91.26;95090.94;5107627;28;20664;-78
2023/01/26 00:50:01;;;;;;;8.70;4.50;;;;;;;-1.03;91.35;95095.13;5099075;28;20197;-78
2023/01/26 00:52:30;;;;;;;9.70;5.35;;;;;;;-1.00;91.25;95094.63;5103492;28;20528;-79
2023/01/26 00:54:58;;;;;;;10.93;6.80;;;;;;;-1.11;91.15;95104.31;5108481;28;20618;-78
2023/01/26 00:57:24;;;;;;;9.00;4.90;;;;;;;-1.14;91.76;95086.19;5106314;28;20229;-79
2023/01/26 00:59:53;;;;;;;16.95;3.85;;;;;;;-1.22;91.53;95096.41;5109233;28;20210;-80
2023/01/26 01:02:19;;;;;;;5.70;3.67;;;;;;;-1.21;91.60;95077.56;5109525;28;20656;-80
2023/01/26 01:04:46;;;;;;;9.43;5.32;;;;;;;-1.16;91.35;95079.50;5095046;28;20248;-79
2023/01/26 01:07:13;;;;;;;6.88;4.28;;;;;;;-1.16;91.14;95076.84;5102115;28;20201;-79
2023/01/26 01:09:40;;;;;;;7.68;4.75;;;;;;;-1.15;90.96;95078.44;5109152;28;20190;-77
2023/01/26 01:12:07;;;;;;;9.15;5.55;;;;;;;-1.09;91.01;95069.50;5101961;28;20251;-78
2023/01/26 01:14:33;;;;;;;7.18;3.53;;;;;;;-1.15;90.33;95081.91;5108734;28;20737;-78
2023/01/26 01:17:01;;;;;;;10.65;5.97;;;;;;;-1.14;90.56;95075.56;5110399;28;20229;-78
2023/01/26 01:19:28;;;;;;;9.93;5.20;;;;;;;-1.16;90.47;95055.59;5109514;28;20271;-77
2023/01/26 01:21:55;;;;;;;9.18;5.40;;;;;;;-1.08;89.96;95061.28;5109640;28;20194;-78
2023/01/26 01:24:22;;;;;;;9.32;5.50;;;;;;;-1.08;90.07;95055.97;5109852;28;20621;-81
2023/01/26 01:26:49;;;;;;;7.30;4.43;;;;;;;-1.07;89.67;95067.41;5109497;28;20621;-79
2023/01/26 01:29:15;;;;;;;9.68;5.32;;;;;;;-1.07;89.81;95073.53;5109179;28;20679;-77
2023/01/26 01:31:42;;;;;;;10.00;5.25;;;;;;;-1.06;89.75;95058.38;5109570;28;20644;-80
2023/01/26 01:34:10;;;;;;;10.38;5.93;;;;;;;-1.00;89.18;95060.06;5110024;28;20221;-78
2023/01/26 01:36:37;;;;;;;12.52;5.43;;;;;;;-0.99;89.30;95059.03;5113408;28;20225;-80
2023/01/26 01:39:04;;;;;;;10.43;4.55;;;;;;;-0.99;89.21;95053.72;5113926;28;20201;-78
2023/01/26 01:41:31;;;;;;;11.27;5.63;;;;;;;-0.97;88.99;95059.59;5113129;28;20246;-78
2023/01/26 01:44:15;;;;;;;11.50;4.85;;;;;;;-0.98;88.76;95050.00;5113792;28;20417;-77
2023/01/26 01:46:47;;;;;;;9.88;5.90;;;;;;;-0.90;88.93;95062.88;5112861;28;20793;-78
2023/01/26 01:49:19;;;;;;;3.40;1.85;;;;;;;-0.86;88.29;95053.34;5113223;28;20722;-78
2023/01/26 01:51:51;;;;;;;5.72;3.15;;;;;;;-0.94;88.32;95051.09;5113104;28;20289;-77
2023/01/26 01:54:22;;;;;;;7.28;4.20;;;;;;;-1.03;88.23;95060.56;5112781;28;20902;-80
2023/01/26 01:56:54;;;;;;;2.05;1.85;;;;;;;-1.03;88.43;95055.25;5112206;28;20628;-77
2023/01/26 01:59:21;;;;;;;2.70;1.90;;;;;;;-1.04;88.33;95045.66;5112879;28;20661;-78
2023/01/26 02:01:50;;;;;;;3.08;2.17;;;;;;;-1.07;88.24;95046.13;5112573;28;20653;-79
2023/01/26 02:04:21;;;;;;;3.30;2.08;;;;;;;-1.02;88.48;95043.56;5112582;28;20246;-79
2023/01/26 02:06:50;;;;;;;2.42;1.58;;;;;;;-1.11;88.35;95029.09;5112916;28;20202;-77
2023/01/26 02:12:00;;;;;;;4.45;2.05;;;;;;;-0.97;87.72;95033.00;5111166;28;20197;-78
2023/01/26 02:14:28;;;;;;;4.00;2.40;;;;;;;-0.99;87.92;95031.63;5095581;28;20198;-79
2023/01/26 02:16:55;;;;;;;2.83;2.13;;;;;;;-1.02;88.31;95032.13;5102194;28;20568;-79
2023/01/26 02:19:33;;;;;;;5.20;1.73;;;;;;;-1.12;88.32;95022.16;5112641;28;20683;-77
2023/01/26 02:22:07;;;;;;;8.18;4.30;;;;;;;-1.02;88.29;95019.63;5112904;28;20205;-77
2023/01/26 02:24:38;;;;;;;9.80;4.90;;;;;;;-1.04;88.70;95008.44;5112750;28;20329;-79
2023/01/26 02:27:07;;;;;;;6.15;3.53;;;;;;;-1.14;88.87;95008.31;5112445;28;20194;-77
2023/01/26 02:29:34;;;;;;;5.18;3.10;;;;;;;-1.16;88.64;94994.47;5112759;28;20204;-77
2023/01/26 02:32:01;;;;;;;11.27;4.15;;;;;;;-1.27;89.35;95008.66;5112709;28;20206;-79
2023/01/26 02:34:28;;;;;;;8.57;4.10;;;;;;;-1.17;89.28;95000.81;5112570;28;20236;-78
2023/01/26 02:36:58;;;;;;;8.02;5.47;;;;;;;-1.12;89.27;94990.25;5112333;28;20316;-77
2023/01/26 02:39:43;;;;;;;13.13;6.47;;;;;;;-1.03;89.33;94994.09;5113007;28;20630;-80
2023/01/26 02:44:56;;;;;;;12.18;4.93;;;;;;;-1.07;89.08;94998.28;5111925;28;20358;-77
2023/01/26 02:47:23;;;;;;;8.27;4.85;;;;;;;-1.08;88.79;94988.72;5112134;28;20205;-82
2023/01/26 02:49:49;;;;;;;7.65;4.07;;;;;;;-1.07;89.01;94982.34;5112005;28;20289;-78
2023/01/26 02:52:18;;;;;;;7.10;3.50;;;;;;;-1.17;89.14;94982.22;5112324;28;20197;-78
2023/01/26 02:57:30;;;;;;;2.47;1.20;;;;;;;-1.21;89.42;94975.78;5112423;28;20243;-80
2023/01/26 02:59:57;;;;;;;4.65;1.67;;;;;;;-1.18;89.05;94962.81;5112701;28;20310;-79
2023/01/26 03:02:24;;;;;;;0.85;0.80;;;;;;;-1.14;89.41;94960.47;5112151;28;20198;-79
2023/01/26 03:04:51;;;;;;;3.40;2.00;;;;;;;-1.02;89.02;94968.31;5111866;28;20197;-79
2023/01/26 03:07:18;;;;;;;6.22;3.53;;;;;;;-1.12;88.66;94959.19;5112104;28;20209;-79
2023/01/26 03:09:45;;;;;;;4.25;2.95;;;;;;;-1.12;88.82;94963.69;5111918;28;20197;-80
2023/01/26 03:12:12;;;;;;;6.68;4.20;;;;;;;-1.17;88.83;94966.28;5111628;28;20197;-79
2023/01/26 03:14:40;;;;;;;4.57;3.15;;;;;;;-1.14;88.98;94960.47;5111835;28;20214;-80
2023/01/26 03:17:06;;;;;;;5.57;3.20;;;;;;;-1.12;89.02;94947.75;5111468;28;20286;-79
2023/01/26 03:27:48;;;;;;;6.80;4.38;;;;;;;-1.07;88.54;94915.88;5110895;28;20293;-79
2023/01/26 03:30:19;;;;;;;7.18;4.60;;;;;;;-1.08;88.40;94931.03;5110956;28;20202;-79
2023/01/26 03:32:46;;;;;;;7.88;4.90;;;;;;;-1.09;88.53;94923.31;5111142;28;20225;-80
2023/01/26 03:35:14;;;;;;;6.97;4.22;;;;;;;-1.07;88.50;94923.88;5111030;28;20230;-79
2023/01/26 03:37:42;;;;;;;6.13;3.70;;;;;;;-1.02;88.37;94921.28;5110839;28;20337;-79
2023/01/26 03:56:36;;;;;;;7.50;4.20;;;;;;;-1.01;87.55;94922.09;5110407;28;20212;-75
2023/01/26 03:59:08;;;;;;;9.93;4.28;;;;;;;-1.02;87.84;94910.66;5110298;28;20258;-79
2023/01/26 04:01:37;;;;;;;8.05;4.57;;;;;;;-1.08;87.76;94901.00;5110836;28;20224;-78
2023/01/26 04:09:36;;;;;;;1.88;1.17;;;;;;;-1.02;87.95;94902.66;5110719;28;20285;-78
2023/01/26 04:12:04;;;;;;;4.10;2.00;;;;;;;-1.05;87.60;94884.56;5110853;28;20221;-78
2023/01/26 04:22:45;;;;;;;4.20;3.10;;;;;;;-1.08;88.24;94863.78;5109856;28;20200;-77
2023/01/26 04:25:13;;;;;;;1.75;1.13;;;;;;;-1.13;88.38;94871.72;5109555;28;20201;-77
2023/01/26 04:27:41;;;;;;;2.67;1.77;;;;;;;-1.11;88.80;94864.31;5109831;28;20205;-78
2023/01/26 04:30:09;;;;;;;1.80;0.73;;;;;;;-1.03;88.86;94850.56;5109608;28;20194;-79
2023/01/26 04:32:37;;;;;;;2.03;1.42;;;;;;;-1.04;88.04;94848.94;5089534;28;20610;-78
2023/01/26 04:35:06;;;;;;;2.45;2.03;;;;;;;-1.04;87.97;94854.25;5103099;28;20352;-77
2023/01/26 04:37:33;;;;;;;3.63;1.92;;;;;;;-1.08;87.43;94853.16;5109479;28;20222;-74
2023/01/26 04:40:00;;;;;;;1.17;1.08;;;;;;;-1.01;87.60;94853.78;5110055;28;20254;-78
2023/01/26 04:42:26;;;;;;;7.85;4.20;;;;;;;-1.03;87.70;94850.56;5109776;28;20227;-77
2023/01/26 04:44:54;;;;;;;8.98;3.63;;;;;;;-1.05;87.54;94860.63;5109280;28;20201;-79
2023/01/26 04:47:21;;;;;;;3.13;1.95;;;;;;;-1.00;87.24;94859.91;5109384;28;20202;-80
2023/01/26 04:49:50;;;;;;;1.23;0.80;;;;;;;-1.01;86.90;94859.09;5107635;28;20205;-80
2023/01/26 04:52:16;;;;;;;1.60;1.30;;;;;;;-0.92;86.96;94854.13;5096626;28;20251;-80
2023/01/26 04:54:43;;;;;;;4.70;1.92;;;;;;;-1.03;86.88;94869.16;5109385;28;20256;-81
2023/01/26 04:57:10;;;;;;;3.70;1.85;;;;;;;-1.02;87.21;94867.31;5109306;28;20251;-79
2023/01/26 04:59:37;;;;;;;5.75;2.42;;;;;;;-0.98;86.62;94871.09;5109883;28;20224;-81
2023/01/26 05:02:03;;;;;;;3.78;1.35;;;;;;;-0.98;86.74;94876.41;5110956;28;20471;-80
2023/01/26 05:04:31;;;;;;;2.47;1.73;;;;;;;-1.00;86.85;94870.53;5110665;28;20729;-79
2023/01/26 05:06:59;;;;;;;0.63;0.63;;;;;;;-0.98;86.90;94874.53;5111654;28;20239;-79
2023/01/26 05:09:26;;;;;;;1.83;1.30;;;;;;;-0.94;86.75;94865.00;5111274;28;20205;-79
2023/01/26 05:11:52;;;;;;;1.88;1.35;;;;;;;-0.98;86.14;94853.28;5100157;28;20210;-81
2023/01/26 05:14:19;;;;;;;2.80;1.25;;;;;;;-0.92;86.14;94851.47;5104738;28;20209;-83
2023/01/26 05:16:46;;;;;;;12.23;1.35;;;;;;;-0.89;86.38;94854.44;5108143;28;20206;-79
2023/01/26 05:19:14;;;;;;;2.05;1.65;;;;;;;-0.91;86.66;94853.88;5107098;28;20232;-77
2023/01/26 05:21:40;;;;;;;3.80;2.08;;;;;;;-0.99;86.89;94851.69;5106342;28;20656;-78
2023/01/26 05:24:11;;;;;;;4.90;2.70;;;;;;;-1.00;86.65;94858.03;5106755;28;20429;-81
2023/01/26 05:26:37;;;;;;;5.97;1.70;;;;;;;-0.98;86.45;94855.94;5108944;28;20205;-79
2023/01/26 05:29:07;;;;;;;3.22;1.55;;;;;;;-0.96;86.67;94851.19;5107183;28;20214;-85
2023/01/26 05:31:34;;;;;;;4.03;2.55;;;;;;;-0.96;86.16;94856.50;5107530;28;20209;-83
2023/01/26 05:34:00;;;;;;;4.40;1.80;;;;;;;-0.88;85.71;94842.75;5109475;28;20205;-80
2023/01/26 05:36:27;;;;;;;1.75;1.50;;;;;;;-0.90;85.50;94833.41;5108260;28;20229;-81
2023/01/26 05:38:54;;;;;;;2.28;1.50;;;;;;;-0.89;86.02;94849.09;5108522;28;20241;-82
2023/01/26 05:41:22;;;;;;;4.88;1.90;;;;;;;-0.91;85.87;94847.75;5089788;28;20285;-81
2023/01/26 05:43:49;;;;;;;3.22;1.70;;;;;;;-0.91;86.01;94853.06;5090212;28;20236;-82
2023/01/26 05:46:16;;;;;;;4.30;2.45;;;;;;;-0.90;86.06;94844.03;5109640;28;20284;-80
2023/01/26 05:48:43;;;;;;;2.97;1.92;;;;;;;-0.92;85.81;94846.16;5108423;28;20193;-82
2023/01/26 05:51:10;;;;;;;2.20;1.98;;;;;;;-0.81;85.83;94842.53;5108505;28;20713;-82
2023/01/26 05:53:36;;;;;;;2.75;1.48;;;;;;;-0.74;85.36;94846.59;5108667;28;20591;-80
2023/01/26 05:56:03;;;;;;;3.72;1.63;;;;;;;-0.76;85.44;94848.72;5109055;28;20202;-80
2023/01/26 05:58:32;;;;;;;4.95;3.00;;;;;;;-0.80;84.99;94846.78;5090930;28;20227;-81
2023/01/26 06:00:58;;;;;;;2.38;1.42;;;;;;;-0.74;85.33;94853.78;5108764;28;20201;-80
2023/01/26 06:03:25;;;;;;;6.88;2.33;;;;;;;-0.76;85.20;94854.03;5095254;28;20576;-80
2023/01/26 06:05:54;;;;;;;4.28;1.80;;;;;;;-0.76;85.28;94854.03;5108581;28;20206;-82
2023/01/26 06:08:21;;;;;;;3.47;2.10;;;;;;;-0.75;84.94;94836.22;5096005;28;20292;-81
2023/01/26 06:10:48;;;;;;;2.08;1.13;;;;;;;-0.72;85.19;94847.16;5108909;28;20292;-79
2023/01/26 06:13:15;;;;;;;3.00;1.77;;;;;;;-0.75;85.25;94842.34;5108954;28;20197;-80
2023/01/26 06:15:43;;;;;;;5.05;2.80;;;;;;;-0.67;85.12;94848.25;5108636;28;20197;-79
2023/01/26 06:18:10;;;;;;;13.93;4.03;;;;;;;-0.65;84.78;94830.19;5108258;28;20218;-81
2023/01/26 06:20:38;;;;;;;3.55;2.47;;;;;;;-0.72;84.68;94839.19;5111076;28;20292;-81
2023/01/26 06:23:10;;;;;;;3.65;2.45;;;;;;;-0.67;84.76;94837.59;5113047;28;20210;-80
2023/01/26 06:25:40;;;;;;;4.25;3.05;;;;;;;-0.63;84.92;94844.03;5112758;28;20643;-81
2023/01/26 06:28:07;;;;;;;3.08;1.42;;;;;;;-0.61;84.44;94834.75;5112570;28;20289;-83
2023/01/26 06:30:40;;;;;;;4.43;2.25;;;;;;;-0.64;84.79;94826.47;5112555;28;20213;-81
2023/01/26 06:33:10;;;;;;;4.63;1.75;;;;;;;-0.61;84.31;94826.78;5111879;28;20948;-80
2023/01/26 06:35:37;;;;;;;3.58;1.30;;;;;;;-0.62;84.55;94819.84;5111653;28;20222;-82
2023/01/26 06:38:04;;;;;;;5.95;1.80;;;;;;;-0.54;83.98;94813.25;5112322;28;20225;-79
2023/01/26 06:40:31;;;;;;;3.08;2.28;;;;;;;-0.49;84.21;94818.63;5112060;28;20593;-81
2023/01/26 06:42:58;;;;;;;2.67;1.33;;;;;;;-0.54;84.42;94816.72;5111367;28;20202;-82
2023/01/26 06:45:24;;;;;;;3.22;2.08;;;;;;;-0.51;84.04;94823.38;5112287;28;20205;-83
2023/01/26 06:47:52;;;;;;;5.72;3.42;;;;;;;-0.51;83.63;94820.72;5120193;28;20207;-79
2023/01/26 06:50:25;;;;;;;4.97;2.90;;;;;;;-0.49;83.67;94818.63;5123074;28;20225;-78
2023/01/26 06:52:54;;;;;;;1.60;1.35;;;;;;;-0.49;84.09;94822.09;5125642;28;20218;-80
2023/01/26 06:55:25;;;;;;;4.50;1.92;;;;;;;-0.50;83.93;94811.69;5101625;28;20205;-80
2023/01/26 06:57:52;;;;;;;2.20;1.60;;;;;;;-0.47;83.90;94816.50;5111997;28;20250;-81
2023/01/26 07:00:19;;;;;;;6.20;3.28;;;;;;;-0.50;84.09;94809.03;5112579;28;20202;-77
2023/01/26 07:02:46;;;;;;;10.27;2.65;;;;;;;-0.47;84.51;94812.00;5111797;28;20209;-80
2023/01/26 07:05:15;;;;;;;4.82;3.05;;;;;;;-0.35;84.41;94817.13;5111656;28;20274;-81
2023/01/26 07:07:43;;;;;;;4.95;2.50;;;;;;;-0.38;84.13;94812.31;5111930;28;20197;-80
2023/01/26 07:10:12;;;;;;;7.63;3.45;;;;;;;-0.38;84.34;94809.66;5112234;28;20204;-82
2023/01/26 07:12:40;;;;;;;6.22;2.53;;;;;;;-0.42;84.09;94804.06;5111960;28;20226;-82
2023/01/26 07:15:08;;;;;;;5.55;3.10;;;;;;;-0.45;84.20;94798.44;5112443;28;20201;-81
2023/01/26 07:17:36;;;;;;;3.03;1.85;;;;;;;-0.42;84.35;94803.25;5109418;28;20206;-81
2023/01/26 07:20:02;;;;;;;2.38;1.45;;;;;;;-0.37;84.45;94806.75;5107625;28;20715;-83
2023/01/26 07:22:29;;;;;;;4.43;2.78;;;;;;;-0.32;84.14;94803.31;5110150;28;20201;-80
2023/01/26 07:24:57;;;;;;;6.18;3.25;;;;;;;-0.29;84.47;94789.53;5110972;28;20278;-82
2023/01/26 07:27:24;;;;;;;5.28;2.83;;;;;;;-0.24;84.30;94794.06;5112874;28;20205;-81
2023/01/26 07:29:51;;;;;;;3.30;2.17;;;;;;;-0.19;83.97;94786.91;5111116;28;20240;-82
2023/01/26 07:32:18;;;;;;;3.42;2.08;;;;;;;-0.19;83.33;94770.94;5109534;28;20230;-80
2023/01/26 07:34:45;;;;;;;4.88;3.25;;;;;;;-0.20;83.59;94785.31;5110639;28;20221;-80
2023/01/26 07:37:12;;;;;;;5.22;3.08;;;;;;;-0.08;83.62;94783.25;5110903;28;20209;-78
2023/01/26 07:39:39;;;;;;;4.22;2.53;;;;;;;-0.16;83.41;94775.75;5110857;28;20229;-77
2023/01/26 07:42:07;;;;;;;2.08;1.15;;;;;;;-0.12;83.19;94771.50;5110186;28;20209;-77
2023/01/26 07:44:33;;;;;;;3.35;1.98;;;;;;;-0.10;83.40;94780.03;5109782;28;20429;-77
2023/01/26 07:47:00;;;;;;;5.80;2.75;;;;;;;-0.07;83.22;94784.88;5109875;28;20202;-77
2023/01/26 07:49:27;;;;;;;6.93;2.83;;;;;;;-0.10;83.73;94781.91;5110000;28;20206;-79
2023/01/26 07:51:54;;;;;;;3.30;2.20;;;;;;;0.02;83.80;94787.03;5110241;28;20198;-77
2023/01/26 07:54:21;;;;;;;2.20;1.90;;;;;;;-0.08;83.40;94783.25;5109924;28;20231;-78
2023/01/26 07:56:51;;;;;;;5.10;2.70;;;;;;;-0.08;83.62;94777.94;5105540;28;20761;-76
2023/01/26 07:59:19;;;;;;;4.80;1.83;;;;;;;-0.09;83.29;94784.31;5110248;28;20232;-81
2023/01/26 08:01:48;;;;;;;7.82;2.15;;;;;;;-0.04;83.41;94795.00;5097136;28;20201;-79
2023/01/26 08:04:14;;;;;;;7.22;2.45;;;;;;;-0.10;83.29;94779.25;5111035;28;20596;-82
2023/01/26 08:06:41;;;;;;;8.40;3.10;;;;;;;0.04;82.91;94774.25;5110384;28;20205;-82
2023/01/26 08:09:08;;;;;;;6.88;3.42;;;;;;;0.04;82.81;94771.59;5111450;28;20206;-82
2023/01/26 08:11:35;;;;;;;7.90;2.88;;;;;;;0.00;82.90;94793.41;5110443;28;20197;-82
2023/01/26 08:14:02;;;;;;;9.25;3.58;;;;;;;0.00;82.75;94755.38;5110553;28;20262;-80
2023/01/26 08:16:30;;;;;;;6.43;2.55;;;;;;;0.06;82.95;94766.81;5109957;28;20240;-80
2023/01/26 08:18:57;;;;;;;5.75;2.45;;;;;;;0.17;82.28;94758.63;5113485;28;20282;-81
2023/01/26 08:21:23;;;;;;;4.45;2.38;;;;;;;0.14;82.28;94753.00;5109824;28;20202;-81
2023/01/26 08:23:50;;;;;;;4.38;2.92;;;;;;;0.24;82.25;94753.06;5110390;28;20206;-81
2023/01/26 08:26:19;;;;;;;3.42;1.90;;;;;;;0.26;81.87;94761.59;5109605;28;20206;-80
2023/01/26 08:28:46;;;;;;;3.60;1.45;;;;;;;0.25;81.87;94760.00;5109102;28;20201;-79
2023/01/26 08:31:17;;;;;;;1.73;1.15;;;;;;;0.18;81.95;94760.22;5109909;28;20197;-81
2023/01/26 08:33:46;;;;;;;2.13;1.70;;;;;;;0.19;82.16;94756.50;5109976;28;20294;-79
2023/01/26 08:36:14;;;;;;;2.35;1.77;;;;;;;0.26;81.89;94756.28;5108405;28;20241;-80
2023/01/26 08:38:41;;;;;;;2.58;2.05;;;;;;;0.19;81.40;94750.38;5109642;28;20282;-83
2023/01/26 08:41:09;;;;;;;2.28;0.68;;;;;;;0.25;81.57;94744.03;5110090;28;20198;-79
2023/01/26 08:43:36;;;;;;;8.20;2.33;;;;;;;0.33;81.34;94740.84;5107794;28;20261;-79
2023/01/26 08:46:04;;;;;;;2.42;1.10;;;;;;;0.30;80.91;94741.34;5109948;28;20213;-79
2023/01/26 08:48:30;;;;;;;5.90;3.00;;;;;;;0.31;80.72;94751.75;5109396;28;20209;-79
2023/01/26 08:51:01;;;;;;;2.78;1.75;;;;;;;0.43;80.25;94743.53;5079760;28;20202;-81
2023/01/26 08:53:30;;;;;;;2.70;1.77;;;;;;;0.52;80.29;94744.66;5107308;28;20270;-80
2023/01/26 08:55:57;;;;;;;2.35;1.88;;;;;;;0.60;79.72;94744.13;5109691;28;20197;-79
2023/01/26 08:58:24;;;;;;;2.85;1.52;;;;;;;0.65;79.39;94748.69;5108954;28;20209;-81
2023/01/26 09:00:51;;;;;;;1.33;1.10;;;;;;;0.61;79.34;94743.06;5108616;28;20642;-79
2023/01/26 09:03:19;;;;;;;1.95;1.55;;;;;;;0.69;78.94;94747.09;5110613;28;20217;-84
2023/01/26 09:05:46;;;;;;;4.85;1.65;;;;;;;0.72;79.26;94738.56;5111856;28;20210;-84
2023/01/26 09:08:14;;;;;;;1.60;0.90;;;;;;;0.69;78.89;94739.88;5111849;28;20236;-86
2023/01/26 09:10:43;;;;;;;2.22;1.25;;;;;;;0.70;78.97;94746.00;5111575;28;20864;-81
2023/01/26 09:13:10;;;;;;;2.35;1.45;;;;;;;0.80;78.50;94753.25;5110674;28;20285;-88
2023/01/26 09:15:37;;;;;;;5.20;2.90;;;;;;;0.61;78.81;94743.06;5112546;28;20197;-85
2023/01/26 09:18:04;;;;;;;2.45;1.33;;;;;;;0.58;78.75;94737.47;5109365;28;20197;-83
2023/01/26 09:20:31;;;;;;;1.50;1.33;;;;;;;0.62;79.17;94739.34;5110666;28;20225;-83
2023/01/26 09:22:58;;;;;;;1.35;1.10;;;;;;;0.68;79.10;94735.63;5096943;28;20204;-79
2023/01/26 09:25:26;;;;;;;1.95;1.10;;;;;;;0.57;79.61;94723.34;5109245;28;20246;-84
2023/01/26 09:27:53;;;;;;;2.28;1.45;;;;;;;0.51;79.34;94721.72;5097291;28;20204;-81
2023/01/26 09:30:20;;;;;;;13.23;2.70;;;;;;;0.51;79.65;94719.06;5109828;28;20197;-76
2023/01/26 09:32:46;;;;;;;3.90;1.60;;;;;;;0.56;79.57;94718.25;5110266;28;20309;-77
2023/01/26 09:35:13;;;;;;;1.90;1.08;;;;;;;0.57;79.29;94710.00;5110073;28;20233;-82
2023/01/26 09:37:40;;;;;;;2.15;1.25;;;;;;;0.69;79.65;94705.22;5109197;28;20745;-79
2023/01/26 09:40:16;;;;;;;1.88;1.25;;;;;;;0.71;79.34;94705.78;5108703;28;20225;-81
2023/01/26 09:42:57;;;;;;;1.92;1.45;;;;;;;0.63;79.61;94708.97;5109591;28;20257;-83
2023/01/26 09:45:34;;;;;;;4.25;2.47;;;;;;;0.72;79.78;94711.91;5109346;28;20660;-80
2023/01/26 09:48:16;;;;;;;3.25;1.63;;;;;;;0.64;79.42;94710.56;5108863;28;20208;-78
2023/01/26 09:50:51;;;;;;;5.05;2.65;;;;;;;0.65;79.75;94717.50;5089115;28;20213;-83
2023/01/26 09:53:24;;;;;;;1.83;1.15;;;;;;;0.71;79.95;94695.13;5104969;28;20575;-78
2023/01/26 09:55:52;;;;;;;2.20;1.58;;;;;;;0.75;79.68;94683.94;5110830;28;20300;-75
2023/01/26 09:58:32;;;;;;;1.90;1.13;;;;;;;0.81;79.57;94693.53;5111924;28;20197;-80
2023/01/26 10:01:01;;;;;;;4.28;1.65;;;;;;;0.79;79.12;94690.34;5112145;28;20316;-76
2023/01/26 10:03:34;;;;;;;4.65;2.22;;;;;;;0.84;79.16;94683.13;5111868;28;20202;-75
2023/01/26 10:06:12;;;;;;;2.70;1.10;;;;;;;0.88;79.00;94694.88;5112305;28;20198;-78
2023/01/26 10:08:40;;;;;;;2.50;1.55;;;;;;;0.78;79.43;94704.72;5115369;28;20218;-85
2023/01/26 10:11:16;;;;;;;2.10;1.42;;;;;;;0.71;79.49;94688.97;5114447;28;20604;-83
2023/01/26 10:13:50;;;;;;;2.28;1.60;;;;;;;0.81;79.65;94691.69;5103998;28;20202;-83
2023/01/26 10:16:17;;;;;;;2.30;1.50;;;;;;;0.76;79.36;94690.88;5098567;28;20997;-80
2023/01/26 10:18:53;;;;;;;2.90;1.45;;;;;;;0.71;78.92;94671.13;5113556;28;20198;-76
2023/01/26 10:21:25;;;;;;;1.40;0.95;;;;;;;0.73;79.34;94659.41;5098348;28;20197;-75
2023/01/26 10:23:52;;;;;;;1.23;0.70;;;;;;;0.86;79.50;94649.00;5111543;28;20201;-78
2023/01/26 10:26:21;;;;;;;4.05;1.63;;;;;;;0.79;79.56;94653.03;5111352;28;20605;-78
2023/01/26 10:28:51;;;;;;;1.70;1.17;;;;;;;0.86;79.46;94648.22;5111654;28;20274;-83
2023/01/26 10:31:21;;;;;;;1.98;1.23;;;;;;;0.86;79.06;94648.22;5112561;28;20499;-75
2023/01/26 10:33:51;;;;;;;0.65;0.63;;;;;;;0.87;78.92;94639.16;5112752;28;20250;-84
2023/01/26 10:36:18;;;;;;;2.20;1.13;;;;;;;0.84;78.90;94635.13;5113735;28;20329;-84
2023/01/26 10:38:46;;;;;;;1.27;1.05;;;;;;;0.93;79.29;94619.44;5112840;28;20598;-78
2023/01/26 10:41:26;;;;;;;2.22;1.95;;;;;;;0.90;79.15;94612.75;5112034;28;20221;-78
2023/01/26 10:43:57;;;;;;;2.05;1.27;;;;;;;1.00;78.73;94602.06;5111501;28;20193;-78
2023/01/26 10:46:28;;;;;;;0.65;0.63;;;;;;;1.03;78.23;94588.22;5111958;28;20759;-80
2023/01/26 10:48:56;;;;;;;2.05;1.80;;;;;;;1.23;77.96;94570.59;5111755;28;20209;-78
2023/01/26 10:51:29;;;;;;;1.30;1.20;;;;;;;1.15;77.82;94582.59;5111817;28;20314;-78
2023/01/26 10:54:18;;;;;;;3.58;2.10;;;;;;;1.25;78.02;94566.56;5112296;28;20285;-78
2023/01/26 10:56:47;;;;;;;2.58;0.98;;;;;;;1.31;77.57;94554.81;5111242;28;20491;-80
2023/01/26 10:59:22;;;;;;;1.98;1.05;;;;;;;1.25;77.80;94555.88;5111559;28;20605;-77
2023/01/26 11:01:53;;;;;;;2.35;1.58;;;;;;;1.30;77.32;94534.53;5097970;28;20269;-76
2023/01/26 11:04:20;;;;;;;2.92;1.30;;;;;;;1.31;77.41;94546.00;5111099;28;20209;-77
2023/01/26 11:06:47;;;;;;;3.63;1.45;;;;;;;1.27;77.43;94542.28;5111147;28;20308;-77
2023/01/26 11:09:20;;;;;;;2.72;1.77;;;;;;;1.40;77.26;94531.03;5105335;28;20746;-81
2023/01/26 11:11:57;;;;;;;1.40;1.02;;;;;;;1.29;77.28;94530.25;5099969;28;20201;-83
2023/01/26 11:14:28;;;;;;;2.22;1.48;;;;;;;1.28;77.43;94533.19;5111490;28;20201;-79
2023/01/26 11:17:01;;;;;;;2.15;1.08;;;;;;;1.43;77.05;94515.28;5111230;28;20669;-82
2023/01/26 11:19:59;;;;;;;0.88;0.85;;;;;;;1.49;77.53;94518.72;5106543;28;20263;-82
2023/01/26 11:22:33;;;;;;;2.70;1.23;;;;;;;1.37;77.25;94508.34;5104773;28;20194;-81
2023/01/26 11:25:11;;;;;;;1.55;0.95;;;;;;;1.28;78.03;94510.00;5111485;28;20205;-83
2023/01/26 11:27:46;;;;;;;1.35;1.05;;;;;;;1.29;78.15;94492.91;5111109;28;20277;-82
2023/01/26 11:30:45;;;;;;;1.13;0.98;;;;;;;1.33;77.81;94493.97;5113296;28;20297;-85
2023/01/26 11:33:20;;;;;;;1.02;0.80;;;;;;;1.58;77.11;94485.06;5101421;28;20247;-85
2023/01/26 11:35:57;;;;;;;2.50;1.35;;;;;;;1.61;77.33;94479.16;5111701;28;20286;-82
2023/01/26 11:38:39;;;;;;;1.48;0.95;;;;;;;1.71;77.42;94483.66;5113188;28;20331;-81
2023/01/26 11:41:23;;;;;;;3.08;1.80;;;;;;;1.57;77.05;94471.97;5100141;28;20230;-82
2023/01/26 11:44:08;;;;;;;2.00;1.15;;;;;;;1.47;77.93;94474.72;5111377;28;20202;-81
2023/01/26 11:46:51;;;;;;;3.63;1.65;;;;;;;1.44;77.97;94473.38;5097742;28;20611;-83
2023/01/26 11:49:33;;;;;;;2.28;1.33;;;;;;;1.47;78.04;94472.84;5110981;28;20304;-79
2023/01/26 11:52:09;;;;;;;1.55;1.00;;;;;;;1.59;77.57;94478.66;5110488;28;20209;-82
2023/01/26 11:54:56;;;;;;;1.63;1.08;;;;;;;1.59;77.59;94467.97;5110922;28;20291;-82
2023/01/26 11:57:31;;;;;;;1.08;0.98;;;;;;;1.61;77.99;94473.03;5108229;28;20198;-83
2023/01/26 12:00:04;;;;;;;1.95;1.45;;;;;;;1.35;77.73;94467.81;5110980;28;20275;-82
2023/01/26 12:02:36;;;;;;;1.13;1.05;;;;;;;1.32;78.50;94465.69;5109850;28;20194;-81
2023/01/26 12:05:13;;;;;;;0.68;0.68;;;;;;;1.32;78.91;94459.56;5110914;28;20201;-85
2023/01/26 12:07:53;;;;;;;1.30;1.20;;;;;;;1.40;78.90;94459.78;5112983;28;20201;-83
2023/01/26 12:10:27;;;;;;;1.65;1.13;;;;;;;1.46;78.87;94449.88;5110291;28;20241;-83
2023/01/26 12:13:05;;;;;;;1.20;1.02;;;;;;;1.52;78.94;94443.44;5110218;28;20250;-82
2023/01/26 12:15:34;;;;;;;2.53;1.75;;;;;;;1.46;78.53;94449.09;5110795;28;20250;-80
2023/01/26 12:18:10;;;;;;;1.05;0.93;;;;;;;1.45;79.48;94431.47;5110217;28;20674;-80
2023/01/26 12:20:39;;;;;;;5.03;2.00;;;;;;;1.33;79.27;94421.13;5111966;28;20224;-79
2023/01/26 12:23:13;;;;;;;3.22;1.95;;;;;;;1.25;79.61;94427.84;5111143;28;20281;-83
2023/01/26 12:25:41;;;;;;;4.38;1.95;;;;;;;1.36;79.54;94420.59;5111540;28;20206;-81
2023/01/26 12:28:20;;;;;;;3.50;1.55;;;;;;;1.37;79.89;94409.63;5110455;28;20201;-80
2023/01/26 12:30:56;;;;;;;7.18;2.15;;;;;;;1.47;79.95;94408.00;5110698;28;20917;-83
2023/01/26 12:33:24;;;;;;;2.00;1.35;;;;;;;1.55;79.52;94415.41;5111146;28;20204;-82